Terminal Aerodrome Forecast
Issued by NWS Houston/Galveston TX

Home | Current Version | Previous Version | Text Only | Print | Product List | Glossary On
Versions: 1 2 3 4 5 6 7 8 9 10 11 12 13 14 15 16 17 18 19 20 21 22 23 24 25 26 27 28 29 30 31 32 33 34 35 36 37 38 39 40 41 42 43 44 45 46 47 48 49 50
000
FTUS44 KHGX 101129
TAFHOU
TAF
KHOU 101129Z 1012/1112 00000KT P6SM FEW016 SCT250
     FM101500 20007KT P6SM SCT040 SCT250
     FM101600 18007KT P6SM VCSH SCT040 SCT250
     FM102000 15010KT P6SM SCT045
     FM110100 17005KT P6SM SKC=

USA.gov is the U.S. government's official web portal to all federal, state and local government web resources and services.